sensor_id;sensor_type;location;lat;lon;timestamp;pressure;altitude;pressure_sealevel;temperature;humidity
65758;BME280;52495;52.208;5.158;2023-04-01T00:01:41;98956.09;;;10.18;100.00
65758;BME280;52495;52.208;5.158;2023-04-01T00:04:09;98954.34;;;10.19;100.00
65758;BME280;52495;52.208;5.158;2023-04-01T00:06:36;98961.81;;;10.25;100.00
65758;BME280;52495;52.208;5.158;2023-04-01T00:09:03;98959.16;;;10.27;100.00
65758;BME280;52495;52.208;5.158;2023-04-01T00:11:30;98959.31;;;10.24;100.00
65758;BME280;52495;52.208;5.158;2023-04-01T00:13:57;98960.00;;;10.27;100.00
65758;BME280;52495;52.208;5.158;2023-04-01T00:16:24;98966.84;;;10.28;100.00
65758;BME280;52495;52.208;5.158;2023-04-01T00:18:51;98962.50;;;10.29;100.00
65758;BME280;52495;52.208;5.158;2023-04-01T00:21:20;98970.47;;;10.24;100.00
65758;BME280;52495;52.208;5.158;2023-04-01T00:23:47;98970.38;;;10.26;100.00
65758;BME280;52495;52.208;5.158;2023-04-01T00:26:14;98965.22;;;10.26;100.00
65758;BME280;52495;52.208;5.158;2023-04-01T00:28:44;98970.53;;;10.23;100.00
65758;BME280;52495;52.208;5.158;2023-04-01T00:31:11;98968.69;;;10.25;100.00
65758;BME280;52495;52.208;5.158;2023-04-01T00:33:38;98969.81;;;10.19;100.00
65758;BME280;52495;52.208;5.158;2023-04-01T00:36:06;98979.31;;;10.18;100.00
65758;BME280;52495;52.208;5.158;2023-04-01T00:38:36;98981.03;;;10.18;100.00
65758;BME280;52495;52.208;5.158;2023-04-01T00:41:05;98969.00;;;10.18;100.00
65758;BME280;52495;52.208;5.158;2023-04-01T00:43:32;98973.53;;;10.13;100.00
65758;BME280;52495;52.208;5.158;2023-04-01T00:45:59;98977.31;;;10.06;100.00
65758;BME280;52495;52.208;5.158;2023-04-01T00:48:28;98976.41;;;10.07;100.00
65758;BME280;52495;52.208;5.158;2023-04-01T00:50:58;98979.72;;;10.09;100.00
65758;BME280;52495;52.208;5.158;2023-04-01T00:53:28;98984.81;;;10.11;100.00
65758;BME280;52495;52.208;5.158;2023-04-01T00:56:00;98979.78;;;10.08;100.00
65758;BME280;52495;52.208;5.158;2023-04-01T00:58:31;98980.00;;;10.03;100.00
65758;BME280;52495;52.208;5.158;2023-04-01T01:01:00;98980.06;;;10.01;100.00
65758;BME280;52495;52.208;5.158;2023-04-01T01:03:27;98984.41;;;10.01;100.00
65758;BME280;52495;52.208;5.158;2023-04-01T01:06:07;98991.38;;;9.99;100.00
65758;BME280;52495;52.208;5.158;2023-04-01T01:08:46;98980.22;;;9.98;100.00
65758;BME280;52495;52.208;5.158;2023-04-01T01:11:21;98984.44;;;9.99;100.00
65758;BME280;52495;52.208;5.158;2023-04-01T01:13:52;98981.19;;;9.96;100.00
65758;BME280;52495;52.208;5.158;2023-04-01T01:16:26;98988.00;;;9.97;100.00
65758;BME280;52495;52.208;5.158;2023-04-01T01:19:03;98984.44;;;9.99;100.00
65758;BME280;52495;52.208;5.158;2023-04-01T01:21:55;98981.88;;;9.99;100.00
65758;BME280;52495;52.208;5.158;2023-04-01T01:24:42;98990.59;;;9.97;100.00
65758;BME280;52495;52.208;5.158;2023-04-01T01:27:16;98989.94;;;9.92;100.00
65758;BME280;52495;52.208;5.158;2023-04-01T01:30:10;98999.44;;;9.91;100.00
65758;BME280;52495;52.208;5.158;2023-04-01T01:35:33;98987.16;;;9.77;100.00
65758;BME280;52495;52.208;5.158;2023-04-01T01:38:08;98994.97;;;9.76;100.00
65758;BME280;52495;52.208;5.158;2023-04-01T01:40:39;98998.34;;;9.76;100.00
65758;BME280;52495;52.208;5.158;2023-04-01T01:43:10;98999.09;;;9.80;100.00
65758;BME280;52495;52.208;5.158;2023-04-01T01:45:41;99000.25;;;9.72;100.00
65758;BME280;52495;52.208;5.158;2023-04-01T01:48:11;98998.34;;;9.76;100.00
65758;BME280;52495;52.208;5.158;2023-04-01T01:50:41;99001.72;;;9.78;100.00
65758;BME280;52495;52.208;5.158;2023-04-01T01:53:11;99008.75;;;9.75;100.00
65758;BME280;52495;52.208;5.158;2023-04-01T01:55:41;99000.44;;;9.68;100.00
65758;BME280;52495;52.208;5.158;2023-04-01T01:58:12;99007.28;;;9.69;100.00
65758;BME280;52495;52.208;5.158;2023-04-01T02:00:44;99009.00;;;9.68;100.00
65758;BME280;52495;52.208;5.158;2023-04-01T02:03:13;99006.44;;;9.68;100.00
65758;BME280;52495;52.208;5.158;2023-04-01T02:05:44;99007.47;;;9.64;100.00
65758;BME280;52495;52.208;5.158;2023-04-01T02:08:14;99008.44;;;9.62;100.00
65758;BME280;52495;52.208;5.158;2023-04-01T02:10:47;99013.66;;;9.60;100.00
65758;BME280;52495;52.208;5.158;2023-04-01T02:13:21;99011.09;;;9.60;100.00
65758;BME280;52495;52.208;5.158;2023-04-01T02:15:54;99014.44;;;9.62;100.00
65758;BME280;52495;52.208;5.158;2023-04-01T02:18:23;99010.06;;;9.64;100.00
65758;BME280;52495;52.208;5.158;2023-04-01T02:20:51;99022.63;;;9.51;100.00
65758;BME280;52495;52.208;5.158;2023-04-01T02:23:19;99017.47;;;9.51;100.00
65758;BME280;52495;52.208;5.158;2023-04-01T02:25:46;99025.13;;;9.53;100.00
65758;BME280;52495;52.208;5.158;2023-04-01T02:28:16;99025.00;;;9.56;100.00
65758;BME280;52495;52.208;5.158;2023-04-01T02:30:47;99029.25;;;9.57;100.00
65758;BME280;52495;52.208;5.158;2023-04-01T02:33:16;99033.53;;;9.56;100.00
65758;BME280;52495;52.208;5.158;2023-04-01T02:35:43;99035.44;;;9.53;100.00
65758;BME280;52495;52.208;5.158;2023-04-01T02:38:12;99032.94;;;9.51;100.00
65758;BME280;52495;52.208;5.158;2023-04-01T02:40:46;99037.38;;;9.48;100.00
65758;BME280;52495;52.208;5.158;2023-04-01T02:43:14;99043.69;;;9.40;100.00
65758;BME280;52495;52.208;5.158;2023-04-01T02:45:41;99038.00;;;9.32;100.00
65758;BME280;52495;52.208;5.158;2023-04-01T02:48:08;99039.84;;;9.29;100.00
65758;BME280;52495;52.208;5.158;2023-04-01T02:50:35;99045.09;;;9.27;100.00
65758;BME280;52495;52.208;5.158;2023-04-01T02:53:02;99053.13;;;9.19;100.00
65758;BME280;52495;52.208;5.158;2023-04-01T02:55:33;99047.91;;;9.21;100.00
65758;BME280;52495;52.208;5.158;2023-04-01T02:58:00;99055.63;;;9.21;100.00
65758;BME280;52495;52.208;5.158;2023-04-01T03:00:28;99056.09;;;9.31;100.00
65758;BME280;52495;52.208;5.158;2023-04-01T03:02:55;99066.31;;;9.32;100.00
65758;BME280;52495;52.208;5.158;2023-04-01T03:05:22;99064.41;;;9.37;100.00
65758;BME280;52495;52.208;5.158;2023-04-01T03:07:49;99076.31;;;9.40;100.00
65758;BME280;52495;52.208;5.158;2023-04-01T03:10:16;99073.59;;;9.43;100.00
65758;BME280;52495;52.208;5.158;2023-04-01T03:12:44;99076.03;;;9.48;100.00
65758;BME280;52495;52.208;5.158;2023-04-01T03:15:12;99078.28;;;9.55;100.00
65758;BME280;52495;52.208;5.158;2023-04-01T03:17:40;99084.75;;;9.44;100.00
65758;BME280;52495;52.208;5.158;2023-04-01T03:20:08;99091.63;;;9.43;100.00
65758;BME280;52495;52.208;5.158;2023-04-01T03:22:36;99081.16;;;9.48;100.00
65758;BME280;52495;52.208;5.158;2023-04-01T03:25:04;99094.09;;;9.46;100.00
65758;BME280;52495;52.208;5.158;2023-04-01T03:27:33;99093.72;;;9.55;100.00
65758;BME280;52495;52.208;5.158;2023-04-01T03:30:01;99096.34;;;9.54;100.00
65758;BME280;52495;52.208;5.158;2023-04-01T03:32:29;99098.88;;;9.55;100.00
65758;BME280;52495;52.208;5.158;2023-04-01T03:34:55;99109.19;;;9.55;100.00
65758;BME280;52495;52.208;5.158;2023-04-01T03:37:23;99103.38;;;9.50;100.00
65758;BME280;52495;52.208;5.158;2023-04-01T03:39:50;99105.56;;;9.60;100.00
65758;BME280;52495;52.208;5.158;2023-04-01T03:42:17;99111.16;;;9.49;100.00
65758;BME280;52495;52.208;5.158;2023-04-01T03:44:44;99114.06;;;9.62;100.00
65758;BME280;52495;52.208;5.158;2023-04-01T03:47:12;99116.94;;;9.55;100.00
65758;BME280;52495;52.208;5.158;2023-04-01T03:49:39;99117.56;;;9.61;100.00
65758;BME280;52495;52.208;5.158;2023-04-01T03:52:09;99129.88;;;9.75;100.00
65758;BME280;52495;52.208;5.158;2023-04-01T03:54:36;99123.13;;;9.72;100.00
65758;BME280;52495;52.208;5.158;2023-04-01T03:57:03;99141.47;;;9.64;100.00
65758;BME280;52495;52.208;5.158;2023-04-01T03:59:31;99137.81;;;9.70;100.00
65758;BME280;52495;52.208;5.158;2023-04-01T04:01:58;99152.09;;;9.77;100.00
65758;BME280;52495;52.208;5.158;2023-04-01T04:04:27;99142.06;;;9.71;100.00
65758;BME280;52495;52.208;5.158;2023-04-01T04:06:54;99146.25;;;9.74;100.00
65758;BME280;52495;52.208;5.158;2023-04-01T04:09:22;99150.03;;;9.65;100.00
65758;BME280;52495;52.208;5.158;2023-04-01T04:11:49;99158.03;;;9.79;100.00
65758;BME280;52495;52.208;5.158;2023-04-01T04:14:16;99159.66;;;9.82;100.00
65758;BME280;52495;52.208;5.158;2023-04-01T04:16:44;99173.56;;;9.78;100.00
65758;BME280;52495;52.208;5.158;2023-04-01T04:19:11;99173.91;;;9.48;100.00
65758;BME280;52495;52.208;5.158;2023-04-01T04:21:41;99164.41;;;9.70;100.00
65758;BME280;52495;52.208;5.158;2023-04-01T04:24:08;99175.22;;;9.58;100.00
65758;BME280;52495;52.208;5.158;2023-04-01T04:26:55;99176.63;;;9.65;100.00
65758;BME280;52495;52.208;5.158;2023-04-01T04:29:22;99184.81;;;9.75;100.00
65758;BME280;52495;52.208;5.158;2023-04-01T04:31:49;99184.44;;;9.41;100.00
65758;BME280;52495;52.208;5.158;2023-04-01T04:34:15;99189.97;;;9.54;100.00
65758;BME280;52495;52.208;5.158;2023-04-01T04:36:45;99199.00;;;9.65;100.00
65758;BME280;52495;52.208;5.158;2023-04-01T04:39:12;99199.88;;;9.64;100.00
65758;BME280;52495;52.208;5.158;2023-04-01T04:41:41;99205.81;;;9.66;100.00
65758;BME280;52495;52.208;5.158;2023-04-01T04:44:08;99209.69;;;9.76;100.00
65758;BME280;52495;52.208;5.158;2023-04-01T04:46:35;99212.78;;;9.64;100.00
65758;BME280;52495;52.208;5.158;2023-04-01T04:49:11;99213.25;;;9.51;100.00
65758;BME280;52495;52.208;5.158;2023-04-01T04:51:37;99216.94;;;9.66;100.00
65758;BME280;52495;52.208;5.158;2023-04-01T04:54:06;99228.28;;;9.84;100.00
65758;BME280;52495;52.208;5.158;2023-04-01T04:56:55;99236.22;;;9.80;100.00
65758;BME280;52495;52.208;5.158;2023-04-01T04:59:23;99236.06;;;9.83;100.00
65758;BME280;52495;52.208;5.158;2023-04-01T05:02:04;99242.13;;;9.82;100.00
65758;BME280;52495;52.208;5.158;2023-04-01T05:04:34;99252.09;;;9.69;100.00
65758;BME280;52495;52.208;5.158;2023-04-01T05:07:02;99258.19;;;9.66;100.00
65758;BME280;52495;52.208;5.158;2023-04-01T05:09:30;99267.38;;;9.74;100.00
65758;BME280;52495;52.208;5.158;2023-04-01T05:11:58;99268.16;;;9.76;100.00
65758;BME280;52495;52.208;5.158;2023-04-01T05:14:26;99268.97;;;9.76;100.00
65758;BME280;52495;52.208;5.158;2023-04-01T05:17:04;99266.66;;;9.70;100.00
65758;BME280;52495;52.208;5.158;2023-04-01T05:19:31;99275.75;;;9.79;100.00
65758;BME280;52495;52.208;5.158;2023-04-01T05:21:57;99280.44;;;9.69;100.00
65758;BME280;52495;52.208;5.158;2023-04-01T05:24:24;99277.69;;;9.74;100.00
65758;BME280;52495;52.208;5.158;2023-04-01T05:26:53;99286.41;;;9.69;100.00
65758;BME280;52495;52.208;5.158;2023-04-01T05:29:20;99290.63;;;9.72;100.00
65758;BME280;52495;52.208;5.158;2023-04-01T05:31:54;99290.50;;;9.75;100.00
65758;BME280;52495;52.208;5.158;2023-04-01T05:34:21;99292.25;;;9.75;100.00
65758;BME280;52495;52.208;5.158;2023-04-01T05:36:48;99307.94;;;9.68;100.00
65758;BME280;52495;52.208;5.158;2023-04-01T05:39:16;99311.06;;;9.77;100.00
65758;BME280;52495;52.208;5.158;2023-04-01T05:41:43;99308.38;;;9.80;100.00
65758;BME280;52495;52.208;5.158;2023-04-01T05:44:12;99316.22;;;9.77;100.00
65758;BME280;52495;52.208;5.158;2023-04-01T05:46:39;99323.78;;;9.81;100.00
65758;BME280;52495;52.208;5.158;2023-04-01T05:49:25;99318.97;;;9.72;100.00
65758;BME280;52495;52.208;5.158;2023-04-01T05:51:52;99322.50;;;9.69;100.00
65758;BME280;52495;52.208;5.158;2023-04-01T05:54:19;99330.97;;;9.73;100.00
65758;BME280;52495;52.208;5.158;2023-04-01T05:56:46;99321.91;;;9.63;100.00
65758;BME280;52495;52.208;5.158;2023-04-01T05:59:15;99333.69;;;9.68;100.00
65758;BME280;52495;52.208;5.158;2023-04-01T06:01:42;99331.78;;;9.74;100.00
65758;BME280;52495;52.208;5.158;2023-04-01T06:04:12;99340.81;;;9.62;100.00
65758;BME280;52495;52.208;5.158;2023-04-01T06:06:40;99342.31;;;9.67;100.00
65758;BME280;52495;52.208;5.158;2023-04-01T06:09:14;99339.81;;;9.66;100.00
65758;BME280;52495;52.208;5.158;2023-04-01T06:12:00;99351.63;;;9.71;100.00
65758;BME280;52495;52.208;5.158;2023-04-01T06:14:48;99352.81;;;9.63;100.00
65758;BME280;52495;52.208;5.158;2023-04-01T06:17:26;99352.88;;;9.61;100.00
65758;BME280;52495;52.208;5.158;2023-04-01T06:19:57;99359.13;;;9.55;100.00
65758;BME280;52495;52.208;5.158;2023-04-01T06:25:47;99385.53;;;9.61;100.00
65758;BME280;52495;52.208;5.158;2023-04-01T06:31:26;99382.72;;;9.67;100.00
65758;BME280;52495;52.208;5.158;2023-04-01T06:37:15;99399.53;;;9.77;100.00
65758;BME280;52495;52.208;5.158;2023-04-01T06:40:03;99399.81;;;9.69;100.00
65758;BME280;52495;52.208;5.158;2023-04-01T06:43:02;99411.34;;;9.83;100.00
65758;BME280;52495;52.208;5.158;2023-04-01T06:46:13;99413.31;;;9.76;100.00
65758;BME280;52495;52.208;5.158;2023-04-01T06:49:12;99416.56;;;9.81;100.00
65758;BME280;52495;52.208;5.158;2023-04-01T06:52:10;99414.94;;;9.79;100.00
65758;BME280;52495;52.208;5.158;2023-04-01T06:55:04;99432.44;;;9.94;100.00
65758;BME280;52495;52.208;5.158;2023-04-01T06:58:11;99433.44;;;9.90;100.00
65758;BME280;52495;52.208;5.158;2023-04-01T07:00:42;99430.56;;;9.74;100.00
65758;BME280;52495;52.208;5.158;2023-04-01T07:03:16;99442.34;;;9.81;100.00
65758;BME280;52495;52.208;5.158;2023-04-01T07:05:48;99439.53;;;9.87;100.00
65758;BME280;52495;52.208;5.158;2023-04-01T07:08:18;99441.16;;;9.90;100.00
65758;BME280;52495;52.208;5.158;2023-04-01T07:10:50;99456.22;;;9.77;100.00
65758;BME280;52495;52.208;5.158;2023-04-01T07:13:41;99457.63;;;9.86;100.00
65758;BME280;52495;52.208;5.158;2023-04-01T07:16:19;99463.56;;;9.88;100.00
65758;BME280;52495;52.208;5.158;2023-04-01T07:18:50;99466.81;;;9.69;100.00
65758;BME280;52495;52.208;5.158;2023-04-01T07:21:30;99467.41;;;9.78;100.00
65758;BME280;52495;52.208;5.158;2023-04-01T07:24:06;99473.72;;;9.93;100.00
65758;BME280;52495;52.208;5.158;2023-04-01T07:26:41;99477.47;;;10.08;100.00
65758;BME280;52495;52.208;5.158;2023-04-01T07:29:13;99483.19;;;9.92;100.00
65758;BME280;52495;52.208;5.158;2023-04-01T07:32:09;99485.88;;;9.89;100.00
65758;BME280;52495;52.208;5.158;2023-04-01T07:34:50;99485.78;;;9.92;100.00
65758;BME280;52495;52.208;5.158;2023-04-01T07:37:28;99488.25;;;9.95;100.00
65758;BME280;52495;52.208;5.158;2023-04-01T07:40:07;99497.16;;;9.86;100.00
65758;BME280;52495;52.208;5.158;2023-04-01T07:42:48;99493.34;;;9.97;100.00
65758;BME280;52495;52.208;5.158;2023-04-01T07:45:23;99502.34;;;9.85;100.00
65758;BME280;52495;52.208;5.158;2023-04-01T07:48:09;99513.34;;;9.90;100.00
65758;BME280;52495;52.208;5.158;2023-04-01T07:50:46;99502.59;;;9.79;100.00
65758;BME280;52495;52.208;5.158;2023-04-01T07:53:22;99506.56;;;9.87;100.00
65758;BME280;52495;52.208;5.158;2023-04-01T07:56:00;99515.44;;;10.04;100.00
65758;BME280;52495;52.208;5.158;2023-04-01T07:58:41;99515.38;;;10.06;100.00
65758;BME280;52495;52.208;5.158;2023-04-01T08:01:24;99523.97;;;10.06;100.00
65758;BME280;52495;52.208;5.158;2023-04-01T08:04:16;99530.72;;;10.09;100.00
65758;BME280;52495;52.208;5.158;2023-04-01T08:06:51;99532.72;;;10.00;100.00
65758;BME280;52495;52.208;5.158;2023-04-01T08:09:27;99540.53;;;9.99;100.00
65758;BME280;52495;52.208;5.158;2023-04-01T08:12:27;99539.19;;;10.12;100.00
65758;BME280;52495;52.208;5.158;2023-04-01T08:15:21;99547.03;;;10.09;100.00
65758;BME280;52495;52.208;5.158;2023-04-01T08:18:11;99551.97;;;10.15;100.00
65758;BME280;52495;52.208;5.158;2023-04-01T08:20:46;99552.19;;;10.09;100.00
65758;BME280;52495;52.208;5.158;2023-04-01T08:23:17;99558.88;;;10.15;100.00
65758;BME280;52495;52.208;5.158;2023-04-01T08:25:51;99562.66;;;10.06;100.00
65758;BME280;52495;52.208;5.158;2023-04-01T08:28:27;99556.53;;;10.09;100.00
65758;BME280;52495;52.208;5.158;2023-04-01T08:31:01;99569.34;;;10.10;100.00
65758;BME280;52495;52.208;5.158;2023-04-01T08:33:31;99573.84;;;10.05;100.00
65758;BME280;52495;52.208;5.158;2023-04-01T08:36:09;99582.22;;;10.12;100.00
65758;BME280;52495;52.208;5.158;2023-04-01T08:38:42;99585.34;;;10.20;100.00
65758;BME280;52495;52.208;5.158;2023-04-01T08:41:37;99585.13;;;10.26;100.00
65758;BME280;52495;52.208;5.158;2023-04-01T08:44:46;99589.38;;;10.27;100.00
65758;BME280;52495;52.208;5.158;2023-04-01T08:47:40;99593.06;;;10.20;100.00
65758;BME280;52495;52.208;5.158;2023-04-01T08:50:39;99607.50;;;10.26;100.00
65758;BME280;52495;52.208;5.158;2023-04-01T08:54:04;99600.44;;;10.07;100.00
65758;BME280;52495;52.208;5.158;2023-04-01T08:56:42;99605.31;;;10.15;100.00
65758;BME280;52495;52.208;5.158;2023-04-01T09:05:56;99613.78;;;10.18;100.00
65758;BME280;52495;52.208;5.158;2023-04-01T09:08:36;99616.47;;;10.15;100.00
65758;BME280;52495;52.208;5.158;2023-04-01T09:11:08;99614.94;;;10.33;100.00
65758;BME280;52495;52.208;5.158;2023-04-01T09:14:22;99617.81;;;10.26;100.00
65758;BME280;52495;52.208;5.158;2023-04-01T09:20:32;99620.00;;;10.38;100.00
65758;BME280;52495;52.208;5.158;2023-04-01T09:23:35;99631.47;;;10.29;100.00
65758;BME280;52495;52.208;5.158;2023-04-01T09:26:22;99631.88;;;10.42;100.00
65758;BME280;52495;52.208;5.158;2023-04-01T09:29:02;99638.69;;;10.45;100.00
65758;BME280;52495;52.208;5.158;2023-04-01T09:35:02;99650.22;;;10.58;100.00
65758;BME280;52495;52.208;5.158;2023-04-01T09:37:35;99649.50;;;10.55;100.00
65758;BME280;52495;52.208;5.158;2023-04-01T09:40:14;99649.44;;;10.56;100.00
65758;BME280;52495;52.208;5.158;2023-04-01T09:42:54;99669.00;;;10.62;100.00
65758;BME280;52495;52.208;5.158;2023-04-01T09:45:41;99670.16;;;10.55;100.00
65758;BME280;52495;52.208;5.158;2023-04-01T09:48:22;99662.91;;;10.65;100.00
65758;BME280;52495;52.208;5.158;2023-04-01T09:51:03;99674.13;;;10.40;100.00
65758;BME280;52495;52.208;5.158;2023-04-01T09:53:48;99670.47;;;10.45;100.00
65758;BME280;52495;52.208;5.158;2023-04-01T09:56:52;99677.72;;;10.59;100.00
65758;BME280;52495;52.208;5.158;2023-04-01T09:59:55;99676.09;;;10.57;100.00
65758;BME280;52495;52.208;5.158;2023-04-01T10:06:16;99687.44;;;10.53;100.00
65758;BME280;52495;52.208;5.158;2023-04-01T10:12:14;99695.06;;;10.56;100.00
65758;BME280;52495;52.208;5.158;2023-04-01T10:24:28;99702.09;;;10.76;100.00
65758;BME280;52495;52.208;5.158;2023-04-01T10:27:19;99702.78;;;10.81;100.00
65758;BME280;52495;52.208;5.158;2023-04-01T10:33:47;99713.59;;;10.91;100.00
65758;BME280;52495;52.208;5.158;2023-04-01T10:36:44;99709.59;;;11.06;100.00
65758;BME280;52495;52.208;5.158;2023-04-01T10:39:37;99714.31;;;10.95;100.00
65758;BME280;52495;52.208;5.158;2023-04-01T10:43:01;99709.94;;;10.97;100.00
65758;BME280;52495;52.208;5.158;2023-04-01T10:46:20;99716.72;;;11.23;100.00
65758;BME280;52495;52.208;5.158;2023-04-01T10:55:35;99733.00;;;11.25;100.00
65758;BME280;52495;52.208;5.158;2023-04-01T10:58:45;99738.78;;;11.32;100.00
65758;BME280;52495;52.208;5.158;2023-04-01T11:08:24;99738.19;;;11.25;100.00
65758;BME280;52495;52.208;5.158;2023-04-01T11:14:31;99744.44;;;11.42;100.00
65758;BME280;52495;52.208;5.158;2023-04-01T11:20:28;99758.16;;;11.20;100.00
65758;BME280;52495;52.208;5.158;2023-04-01T11:23:14;99752.81;;;11.24;100.00
65758;BME280;52495;52.208;5.158;2023-04-01T11:25:50;99751.81;;;11.05;100.00
65758;BME280;52495;52.208;5.158;2023-04-01T11:31:57;99766.03;;;11.17;100.00
65758;BME280;52495;52.208;5.158;2023-04-01T11:34:39;99777.16;;;11.19;100.00
65758;BME280;52495;52.208;5.158;2023-04-01T11:37:20;99781.81;;;11.33;100.00
65758;BME280;52495;52.208;5.158;2023-04-01T11:40:22;99779.44;;;11.27;100.00
65758;BME280;52495;52.208;5.158;2023-04-01T11:43:21;99777.94;;;11.21;100.00
65758;BME280;52495;52.208;5.158;2023-04-01T11:46:10;99785.59;;;11.24;100.00
65758;BME280;52495;52.208;5.158;2023-04-01T11:48:53;99786.91;;;11.34;100.00
65758;BME280;52495;52.208;5.158;2023-04-01T11:51:45;99798.44;;;11.26;100.00
65758;BME280;52495;52.208;5.158;2023-04-01T11:54:29;99798.94;;;11.12;100.00
65758;BME280;52495;52.208;5.158;2023-04-01T11:57:10;99797.34;;;11.31;100.00
65758;BME280;52495;52.208;5.158;2023-04-01T11:59:59;99805.22;;;11.28;100.00
65758;BME280;52495;52.208;5.158;2023-04-01T12:02:36;99798.94;;;11.35;100.00
65758;BME280;52495;52.208;5.158;2023-04-01T12:05:24;99810.28;;;11.31;100.00
65758;BME280;52495;52.208;5.158;2023-04-01T12:08:06;99814.53;;;11.32;100.00
65758;BME280;52495;52.208;5.158;2023-04-01T12:10:39;99811.84;;;11.35;100.00
65758;BME280;52495;52.208;5.158;2023-04-01T12:13:16;99825.38;;;11.42;100.00
65758;BME280;52495;52.208;5.158;2023-04-01T12:16:04;99819.59;;;11.35;100.00
65758;BME280;52495;52.208;5.158;2023-04-01T12:18:38;99823.19;;;11.31;100.00
65758;BME280;52495;52.208;5.158;2023-04-01T12:21:17;99832.13;;;11.46;100.00
65758;BME280;52495;52.208;5.158;2023-04-01T12:24:09;99845.09;;;11.21;100.00
65758;BME280;52495;52.208;5.158;2023-04-01T12:27:13;99844.69;;;11.08;100.00
65758;BME280;52495;52.208;5.158;2023-04-01T12:30:15;99856.34;;;11.20;100.00
65758;BME280;52495;52.208;5.158;2023-04-01T12:32:49;99857.59;;;11.10;100.00
65758;BME280;52495;52.208;5.158;2023-04-01T12:35:25;99854.31;;;11.04;100.00
65758;BME280;52495;52.208;5.158;2023-04-01T12:38:13;99858.78;;;10.99;100.00
65758;BME280;52495;52.208;5.158;2023-04-01T12:40:59;99859.50;;;11.03;100.00
65758;BME280;52495;52.208;5.158;2023-04-01T12:43:58;99868.63;;;11.13;100.00
65758;BME280;52495;52.208;5.158;2023-04-01T12:46:42;99865.88;;;11.18;100.00
65758;BME280;52495;52.208;5.158;2023-04-01T12:49:38;99865.41;;;11.32;100.00
65758;BME280;52495;52.208;5.158;2023-04-01T12:52:14;99875.75;;;11.32;100.00
65758;BME280;52495;52.208;5.158;2023-04-01T13:01:01;99871.06;;;11.65;100.00
65758;BME280;52495;52.208;5.158;2023-04-01T13:03:58;99875.72;;;11.79;100.00
65758;BME280;52495;52.208;5.158;2023-04-01T13:06:48;99884.59;;;11.72;100.00
65758;BME280;52495;52.208;5.158;2023-04-01T13:09:27;99885.13;;;11.58;100.00
65758;BME280;52495;52.208;5.158;2023-04-01T13:12:09;99890.81;;;11.68;100.00
65758;BME280;52495;52.208;5.158;2023-04-01T13:14:56;99900.47;;;11.63;100.00
65758;BME280;52495;52.208;5.158;2023-04-01T13:17:34;99901.56;;;11.56;100.00
65758;BME280;52495;52.208;5.158;2023-04-01T13:20:06;99912.19;;;11.48;100.00
65758;BME280;52495;52.208;5.158;2023-04-01T13:22:52;99917.59;;;11.42;100.00
65758;BME280;52495;52.208;5.158;2023-04-01T13:25:34;99922.00;;;11.38;100.00
65758;BME280;52495;52.208;5.158;2023-04-01T13:28:09;99924.94;;;11.29;100.00
65758;BME280;52495;52.208;5.158;2023-04-01T13:30:44;99929.47;;;11.22;100.00
65758;BME280;52495;52.208;5.158;2023-04-01T13:33:21;99931.47;;;11.14;100.00
65758;BME280;52495;52.208;5.158;2023-04-01T13:36:03;99926.56;;;11.06;100.00
65758;BME280;52495;52.208;5.158;2023-04-01T13:38:50;99933.31;;;11.10;100.00
65758;BME280;52495;52.208;5.158;2023-04-01T13:41:34;99934.38;;;11.04;100.00
65758;BME280;52495;52.208;5.158;2023-04-01T13:44:11;99938.84;;;10.99;100.00
65758;BME280;52495;52.208;5.158;2023-04-01T13:47:04;99946.75;;;10.95;100.00
65758;BME280;52495;52.208;5.158;2023-04-01T13:49:53;99946.66;;;10.98;100.00
65758;BME280;52495;52.208;5.158;2023-04-01T13:55:31;99957.50;;;10.82;100.00
65758;BME280;52495;52.208;5.158;2023-04-01T13:58:20;99957.53;;;10.81;100.00
65758;BME280;52495;52.208;5.158;2023-04-01T14:01:05;99965.28;;;10.81;100.00
65758;BME280;52495;52.208;5.158;2023-04-01T14:06:38;99966.97;;;10.82;100.00
65758;BME280;52495;52.208;5.158;2023-04-01T14:09:42;99976.50;;;10.80;100.00
65758;BME280;52495;52.208;5.158;2023-04-01T14:12:21;99968.50;;;10.87;100.00
65758;BME280;52495;52.208;5.158;2023-04-01T14:15:09;99977.91;;;10.90;100.00
65758;BME280;52495;52.208;5.158;2023-04-01T14:17:59;99984.94;;;10.85;100.00
65758;BME280;52495;52.208;5.158;2023-04-01T14:20:33;99989.81;;;10.94;100.00
65758;BME280;52495;52.208;5.158;2023-04-01T14:26:12;99995.75;;;10.96;100.00
65758;BME280;52495;52.208;5.158;2023-04-01T14:28:52;100002.63;;;10.97;100.00
65758;BME280;52495;52.208;5.158;2023-04-01T14:31:30;100007.84;;;10.96;100.00
65758;BME280;52495;52.208;5.158;2023-04-01T14:34:12;100006.72;;;11.03;100.00
65758;BME280;52495;52.208;5.158;2023-04-01T14:36:49;100022.38;;;10.98;100.00
65758;BME280;52495;52.208;5.158;2023-04-01T14:39:33;100017.06;;;11.03;100.00
65758;BME280;52495;52.208;5.158;2023-04-01T14:42:13;100028.25;;;11.03;100.00
65758;BME280;52495;52.208;5.158;2023-04-01T14:44:56;100024.97;;;10.98;100.00
65758;BME280;52495;52.208;5.158;2023-04-01T14:47:42;100034.31;;;11.02;100.00
65758;BME280;52495;52.208;5.158;2023-04-01T14:50:14;100045.72;;;10.95;100.00
65758;BME280;52495;52.208;5.158;2023-04-01T14:52:45;100039.59;;;10.99;100.00
65758;BME280;52495;52.208;5.158;2023-04-01T14:55:27;100050.94;;;10.93;100.00
65758;BME280;52495;52.208;5.158;2023-04-01T14:57:59;100055.16;;;10.96;100.00
65758;BME280;52495;52.208;5.158;2023-04-01T15:00:40;100056.84;;;10.97;100.00
65758;BME280;52495;52.208;5.158;2023-04-01T15:03:13;100056.41;;;10.84;100.00
65758;BME280;52495;52.208;5.158;2023-04-01T15:05:47;100062.34;;;10.86;100.00
65758;BME280;52495;52.208;5.158;2023-04-01T15:08:19;100071.94;;;10.83;100.00
65758;BME280;52495;52.208;5.158;2023-04-01T15:14:11;100085.81;;;10.80;100.00
65758;BME280;52495;52.208;5.158;2023-04-01T15:16:49;100089.53;;;10.70;100.00